createdAt,value
2022-08-20T00:01:47.225Z,3.38
2022-08-20T00:04:53.733Z,3.22
2022-08-20T00:07:43.785Z,3.13
2022-08-20T00:10:32.900Z,3.50
2022-08-20T00:13:21.857Z,3.90
2022-08-20T00:16:08.301Z,2.88
2022-08-20T00:18:54.207Z,2.90
2022-08-20T00:21:40.752Z,3.00
2022-08-20T00:24:28.538Z,2.92
2022-08-20T00:27:15.066Z,2.92
2022-08-20T00:30:01.286Z,2.88
2022-08-20T00:32:54.085Z,3.15
2022-08-20T00:35:41.480Z,2.75
2022-08-20T00:38:32.787Z,2.85
2022-08-20T00:41:24.759Z,2.55
2022-08-20T00:44:19.757Z,3.08
2022-08-20T00:47:09.415Z,2.35
2022-08-20T00:50:25.296Z,2.95
2022-08-20T00:53:16.983Z,2.75
2022-08-20T00:56:04.462Z,2.50
2022-08-20T00:58:51.393Z,3.10
2022-08-20T01:01:54.830Z,2.75
2022-08-20T01:04:46.754Z,3.10
2022-08-20T01:11:54.205Z,2.88
2022-08-20T01:15:20.856Z,2.13
2022-08-20T01:27:35.460Z,2.17
2022-08-20T01:30:54.438Z,2.85
2022-08-20T01:47:53.544Z,3.65
2022-08-20T01:54:04.579Z,2.90
2022-08-20T02:02:10.664Z,3.10
2022-08-20T02:05:00.968Z,2.92
2022-08-20T02:07:49.797Z,2.80
2022-08-20T02:10:36.996Z,2.80
2022-08-20T02:13:26.913Z,3.85
2022-08-20T02:16:13.317Z,3.40
2022-08-20T02:19:14.531Z,3.28
2022-08-20T02:22:55.600Z,3.22
2022-08-20T02:25:31.280Z,3.67
2022-08-20T02:28:50.874Z,4.00
2022-08-20T02:32:34.194Z,3.53
2022-08-20T02:36:18.297Z,2.80
2022-08-20T02:39:05.926Z,3.15
2022-08-20T02:42:01.095Z,3.60
2022-08-20T02:44:47.588Z,2.75
2022-08-20T02:47:33.904Z,3.60
2022-08-20T02:50:20.842Z,3.50
2022-08-20T02:53:15.519Z,3.05
2022-08-20T02:56:44.109Z,3.58
2022-08-20T02:59:57.073Z,2.92
2022-08-20T03:03:08.599Z,3.28
2022-08-20T03:06:23.815Z,2.90
2022-08-20T03:09:17.262Z,3.40
2022-08-20T03:12:04.486Z,3.80
2022-08-20T03:14:50.578Z,3.65
2022-08-20T03:17:37.026Z,3.33
2022-08-20T03:20:26.550Z,2.83
2022-08-20T03:27:16.250Z,3.95
2022-08-20T03:30:11.406Z,3.97
2022-08-20T03:33:29.824Z,3.10
2022-08-20T03:36:42.664Z,3.55
2022-08-20T03:40:05.372Z,3.13
2022-08-20T03:43:24.676Z,2.58
2022-08-20T03:46:40.166Z,2.65
2022-08-20T03:49:26.668Z,2.92
2022-08-20T03:52:38.684Z,2.97
2022-08-20T03:55:53.705Z,3.13
2022-08-20T04:01:47.092Z,3.47
2022-08-20T04:05:24.546Z,3.60
2022-08-20T04:08:14.907Z,3.58
2022-08-20T04:11:02.096Z,4.30
2022-08-20T04:13:52.135Z,3.97
2022-08-20T04:16:40.686Z,4.15
2022-08-20T04:19:30.179Z,3.53
2022-08-20T04:22:38.960Z,3.83
2022-08-20T04:25:29.884Z,3.75
2022-08-20T04:28:28.753Z,3.28
2022-08-20T04:31:15.273Z,3.70
2022-08-20T04:34:02.727Z,4.20
2022-08-20T04:36:49.195Z,3.47
2022-08-20T04:39:35.723Z,3.72
2022-08-20T04:42:26.652Z,3.65
2022-08-20T04:45:32.164Z,3.88
2022-08-20T04:48:26.624Z,3.90
2022-08-20T04:51:30.850Z,4.18
2022-08-20T04:54:22.316Z,3.17
2022-08-20T04:57:09.498Z,2.75
2022-08-20T04:59:59.549Z,3.03
2022-08-20T05:02:46.344Z,3.60
2022-08-20T05:05:35.728Z,2.80
2022-08-20T05:08:23.292Z,3.22
2022-08-20T05:11:34.299Z,2.92
2022-08-20T05:14:21.846Z,2.90
2022-08-20T05:17:08.418Z,2.92
2022-08-20T05:19:54.578Z,4.18
2022-08-20T05:22:40.889Z,3.47
2022-08-20T05:25:31.141Z,3.15
2022-08-20T05:28:36.921Z,3.65
2022-08-20T05:31:39.518Z,3.92
2022-08-20T05:34:28.688Z,3.50
2022-08-20T05:37:27.145Z,4.13
2022-08-20T05:40:23.341Z,4.20
2022-08-20T05:43:13.763Z,4.05
2022-08-20T05:45:59.789Z,3.72
2022-08-20T05:48:45.931Z,4.07
2022-08-20T05:51:32.537Z,4.43
2022-08-20T05:54:19.059Z,3.63
2022-08-20T05:57:05.249Z,3.67
2022-08-20T05:59:51.488Z,3.63
2022-08-20T06:02:56.473Z,3.83
2022-08-20T06:05:42.781Z,3.55
2022-08-20T06:08:29.243Z,3.65
2022-08-20T06:11:15.627Z,3.35
2022-08-20T06:14:02.607Z,3.67
2022-08-20T06:16:57.459Z,3.28
2022-08-20T06:19:46.016Z,3.45
2022-08-20T06:22:34.350Z,3.50
2022-08-20T06:25:29.810Z,3.50
2022-08-20T06:28:15.862Z,3.17
2022-08-20T06:31:02.252Z,3.55
2022-08-20T06:37:18.218Z,3.95
2022-08-20T06:40:08.453Z,2.70
2022-08-20T06:42:55.281Z,4.05
2022-08-20T06:45:41.515Z,3.92
2022-08-20T06:48:27.667Z,3.40
2022-08-20T06:51:38.945Z,3.22
2022-08-20T06:54:29.205Z,3.35
2022-08-20T06:57:16.089Z,2.60
2022-08-20T07:00:03.308Z,3.65
2022-08-20T07:02:53.699Z,4.07
2022-08-20T07:05:43.772Z,3.85
2022-08-20T07:08:29.676Z,3.78
2022-08-20T07:11:16.161Z,3.78
2022-08-20T07:14:05.744Z,3.70
2022-08-20T07:16:53.780Z,3.38
2022-08-20T07:20:23.487Z,4.38
2022-08-20T07:23:12.239Z,4.45
2022-08-20T07:26:03.806Z,4.15
2022-08-20T07:29:12.136Z,4.05
2022-08-20T07:32:19.138Z,4.15
2022-08-20T07:35:21.663Z,4.35
2022-08-20T07:38:24.475Z,5.15
2022-08-20T07:41:15.261Z,2.70
2022-08-20T07:44:01.800Z,3.13
2022-08-20T07:46:57.190Z,3.05
2022-08-20T07:50:02.727Z,5.43
2022-08-20T07:52:52.687Z,3.40
2022-08-20T07:55:40.324Z,3.38
2022-08-20T07:58:50.508Z,3.55
2022-08-20T08:01:38.232Z,3.65
2022-08-20T08:04:26.254Z,3.80
2022-08-20T08:07:13.172Z,2.80
2022-08-20T08:10:00.946Z,3.83
2022-08-20T08:12:49.648Z,3.40
2022-08-20T08:15:58.393Z,4.30
2022-08-20T08:18:53.191Z,3.35
2022-08-20T08:22:08.166Z,2.83
2022-08-20T08:25:20.078Z,3.58
2022-08-20T08:28:06.353Z,3.13
2022-08-20T08:30:52.778Z,3.60
2022-08-20T08:33:40.172Z,3.85
2022-08-20T08:39:37.267Z,4.28
2022-08-20T08:42:32.696Z,4.43
2022-08-20T08:45:19.531Z,4.18
2022-08-20T08:48:32.400Z,3.40
2022-08-20T08:51:25.598Z,4.00
2022-08-20T08:54:16.044Z,5.15
2022-08-20T08:57:02.506Z,4.35
2022-08-20T09:00:04.335Z,4.78
2022-08-20T09:02:55.319Z,4.10
2022-08-20T09:05:49.399Z,4.20
2022-08-20T09:08:54.156Z,3.67
2022-08-20T09:12:29.814Z,3.35
2022-08-20T09:15:15.821Z,3.10
2022-08-20T09:18:01.995Z,3.97
2022-08-20T09:20:48.220Z,3.25
2022-08-20T09:23:34.572Z,3.17
2022-08-20T09:26:22.663Z,3.13
2022-08-20T09:29:38.452Z,3.13
2022-08-20T09:32:25.147Z,3.35
2022-08-20T09:35:13.492Z,3.67
2022-08-20T09:37:59.805Z,3.42
2022-08-20T09:40:45.996Z,4.10
2022-08-20T09:43:32.567Z,7.10
2022-08-20T09:46:18.996Z,10.07
2022-08-20T09:49:05.409Z,7.18
2022-08-20T09:51:55.475Z,7.03
2022-08-20T09:54:46.527Z,4.50
2022-08-20T09:57:39.187Z,3.88
2022-08-20T10:00:37.046Z,3.58
2022-08-20T10:03:23.217Z,4.25
2022-08-20T10:06:28.431Z,6.68
2022-08-20T10:14:04.035Z,4.50
2022-08-20T10:16:55.321Z,4.97
2022-08-20T10:19:50.459Z,5.85
2022-08-20T10:22:39.380Z,6.53
2022-08-20T10:25:25.656Z,5.22
2022-08-20T10:28:12.001Z,4.85
2022-08-20T10:30:58.280Z,4.13
2022-08-20T10:33:44.367Z,4.68
2022-08-20T10:36:30.558Z,5.90
2022-08-20T10:39:16.836Z,5.05
2022-08-20T10:42:03.253Z,5.00
2022-08-20T10:44:50.287Z,7.13
2022-08-20T10:47:36.644Z,6.43
2022-08-20T10:50:22.909Z,5.70
2022-08-20T10:53:09.230Z,4.63
2022-08-20T10:55:56.103Z,4.75
2022-08-20T10:58:42.360Z,3.58
2022-08-20T11:01:48.853Z,4.25
2022-08-20T11:04:35.601Z,3.58
2022-08-20T11:07:50.431Z,4.15
2022-08-20T11:10:39.577Z,4.30
2022-08-20T11:13:49.371Z,3.65
2022-08-20T11:16:35.798Z,3.50
2022-08-20T11:19:22.069Z,2.97
2022-08-20T11:22:09.916Z,3.22
2022-08-20T11:24:56.036Z,3.70
2022-08-20T11:27:44.459Z,4.18
2022-08-20T11:30:32.220Z,4.35
2022-08-20T11:33:19.062Z,3.97
2022-08-20T11:36:12.436Z,3.92
2022-08-20T11:38:58.416Z,3.30
2022-08-20T11:41:45.855Z,3.90
2022-08-20T11:44:33.161Z,3.42
2022-08-20T11:47:38.307Z,3.28
2022-08-20T11:50:24.648Z,5.25
2022-08-20T11:53:13.566Z,3.63
2022-08-20T11:56:01.536Z,3.65
2022-08-20T11:58:47.635Z,3.35
2022-08-20T12:01:34.048Z,3.50
2022-08-20T12:04:20.254Z,4.00
2022-08-20T12:07:08.711Z,4.90
2022-08-20T12:09:55.145Z,5.20
2022-08-20T12:12:41.139Z,5.55
2022-08-20T12:15:27.757Z,4.30
2022-08-20T12:18:13.797Z,5.72
2022-08-20T12:21:00.247Z,3.83
2022-08-20T12:23:46.939Z,4.07
2022-08-20T12:26:33.409Z,3.83
2022-08-20T12:29:19.709Z,4.10
2022-08-20T12:32:07.251Z,4.13
2022-08-20T12:34:53.537Z,4.35
2022-08-20T12:37:40.836Z,5.28
2022-08-20T12:40:32.248Z,3.95
2022-08-20T12:43:24.244Z,4.03
2022-08-20T12:46:10.881Z,4.40
2022-08-20T12:48:57.177Z,5.00
2022-08-20T12:51:43.327Z,3.60
2022-08-20T12:54:29.647Z,4.05
2022-08-20T12:57:25.200Z,3.75
2022-08-20T13:00:13.361Z,4.55
2022-08-20T13:03:00.740Z,10.32
2022-08-20T13:05:46.854Z,18.48
2022-08-20T13:08:32.844Z,13.40
2022-08-20T13:11:19.114Z,7.03
2022-08-20T13:14:05.631Z,5.95
2022-08-20T13:16:58.857Z,6.05
2022-08-20T13:19:47.063Z,6.32
2022-08-20T13:22:33.395Z,4.75
2022-08-20T13:25:19.974Z,5.63
2022-08-20T13:28:06.328Z,5.78
2022-08-20T13:30:56.003Z,6.38
2022-08-20T13:33:42.290Z,6.38
2022-08-20T13:36:28.661Z,5.88
2022-08-20T13:39:14.758Z,5.97
2022-08-20T13:42:01.023Z,8.93
2022-08-20T13:44:47.162Z,8.48
2022-08-20T13:47:35.882Z,6.50
2022-08-20T13:50:24.035Z,11.63
2022-08-20T13:53:10.136Z,8.35
2022-08-20T13:55:56.524Z,6.68
2022-08-20T13:58:47.917Z,5.75
2022-08-20T14:06:49.576Z,5.43
2022-08-20T14:09:40.525Z,5.90
2022-08-20T14:12:31.854Z,6.22
2022-08-20T14:15:18.227Z,6.57
2022-08-20T14:18:04.173Z,6.00
2022-08-20T14:20:53.095Z,6.22
2022-08-20T14:23:39.190Z,5.43
2022-08-20T14:26:25.305Z,5.72
2022-08-20T14:29:11.761Z,5.57
2022-08-20T14:32:02.425Z,7.30
2022-08-20T14:34:48.603Z,6.15
2022-08-20T14:37:38.030Z,8.93
2022-08-20T14:40:25.559Z,7.35
2022-08-20T14:43:11.419Z,8.00
2022-08-20T14:45:57.464Z,7.70
2022-08-20T14:48:44.813Z,7.10
2022-08-20T14:51:39.157Z,6.82
2022-08-20T14:54:25.325Z,7.47
2022-08-20T14:57:12.899Z,8.43
2022-08-20T14:59:59.950Z,7.40
2022-08-20T15:02:46.339Z,7.13
2022-08-20T15:05:33.735Z,8.75
2022-08-20T15:08:19.866Z,8.25
2022-08-20T15:11:08.622Z,7.82
2022-08-20T15:13:56.154Z,9.30
2022-08-20T15:16:42.527Z,7.75
2022-08-20T15:19:28.744Z,9.10
2022-08-20T15:22:14.921Z,7.57
2022-08-20T15:25:00.979Z,8.50
2022-08-20T15:27:48.042Z,8.13
2022-08-20T15:30:33.923Z,8.82
2022-08-20T15:33:20.090Z,7.47
2022-08-20T15:36:07.134Z,7.78
2022-08-20T15:38:52.879Z,9.00
2022-08-20T15:41:39.256Z,8.65
2022-08-20T15:44:25.483Z,8.57
2022-08-20T15:47:19.880Z,7.75
2022-08-20T15:50:14.187Z,6.63
2022-08-20T15:53:20.855Z,7.93
2022-08-20T15:56:11.459Z,7.07
2022-08-20T15:59:09.536Z,18.38
2022-08-20T16:02:25.116Z,7.25
2022-08-20T16:05:21.635Z,8.05
2022-08-20T16:08:14.393Z,8.95
2022-08-20T16:11:09.410Z,10.40
2022-08-20T16:13:57.444Z,11.30
2022-08-20T16:16:46.037Z,9.82
2022-08-20T16:19:46.938Z,8.75
2022-08-20T16:22:32.998Z,8.68
2022-08-20T16:25:22.689Z,7.85
2022-08-20T16:28:09.922Z,8.18
2022-08-20T16:31:02.625Z,8.00
2022-08-20T16:34:33.815Z,6.57
2022-08-20T16:37:23.105Z,7.75
2022-08-20T16:40:14.510Z,6.32
2022-08-20T16:43:02.976Z,6.93
2022-08-20T16:46:01.450Z,7.45
2022-08-20T16:49:07.843Z,9.45
2022-08-20T16:51:54.312Z,7.40
2022-08-20T16:54:42.639Z,7.47
2022-08-20T16:57:28.778Z,7.80
2022-08-20T17:00:20.683Z,7.70
2022-08-20T17:03:08.451Z,7.25
2022-08-20T17:05:56.678Z,7.38
2022-08-20T17:08:47.014Z,12.48
2022-08-20T17:11:33.224Z,7.80
2022-08-20T17:14:19.527Z,6.80
2022-08-20T17:17:05.746Z,8.15
2022-08-20T17:19:59.681Z,7.97
2022-08-20T17:22:47.317Z,7.65
2022-08-20T17:25:38.280Z,7.63
2022-08-20T17:28:24.863Z,7.43
2022-08-20T17:31:10.843Z,7.53
2022-08-20T17:33:57.069Z,7.43
2022-08-20T17:36:52.044Z,8.20
2022-08-20T17:39:45.639Z,8.48
2022-08-20T17:42:31.331Z,8.23
2022-08-20T17:45:28.478Z,7.72
2022-08-20T17:48:20.287Z,8.48
2022-08-20T17:51:13.290Z,6.70
2022-08-20T17:54:07.199Z,7.50
2022-08-20T17:56:55.543Z,7.07
2022-08-20T18:00:08.612Z,6.75
2022-08-20T18:02:58.959Z,7.38
2022-08-20T18:05:47.128Z,6.38
2022-08-20T18:08:51.357Z,6.68
2022-08-20T18:11:44.663Z,6.32
2022-08-20T18:14:36.954Z,6.40
2022-08-20T18:17:42.333Z,7.18
2022-08-20T18:20:43.454Z,7.20
2022-08-20T18:23:41.106Z,6.73
2022-08-20T18:26:32.627Z,6.45
2022-08-20T18:29:25.457Z,8.00
2022-08-20T18:32:25.310Z,6.85
2022-08-20T18:35:20.715Z,6.50
2022-08-20T18:38:12.523Z,7.45
2022-08-20T18:41:26.027Z,6.03
2022-08-20T18:44:14.270Z,5.90
2022-08-20T18:47:01.939Z,6.70
2022-08-20T18:49:58.402Z,5.88
2022-08-20T18:52:44.644Z,6.85
2022-08-20T18:55:32.588Z,6.55
2022-08-20T18:58:32.214Z,6.80
2022-08-20T19:01:18.767Z,6.15
2022-08-20T19:04:14.684Z,5.53
2022-08-20T19:07:05.268Z,6.22
2022-08-20T19:10:03.399Z,5.45
2022-08-20T19:13:03.158Z,5.50
2022-08-20T19:15:50.752Z,6.05
2022-08-20T19:18:55.583Z,7.25
2022-08-20T19:21:42.867Z,6.57
2022-08-20T19:24:31.365Z,6.38
2022-08-20T19:27:18.184Z,7.28
2022-08-20T19:30:04.483Z,7.65
2022-08-20T19:32:51.858Z,6.10
2022-08-20T19:35:37.920Z,6.68
2022-08-20T19:38:24.152Z,6.05
2022-08-20T19:41:30.372Z,6.25
2022-08-20T19:44:38.775Z,6.65
2022-08-20T19:47:24.886Z,6.20
2022-08-20T19:50:23.046Z,5.53
2022-08-20T19:53:30.765Z,4.72
2022-08-20T19:56:21.292Z,5.47
2022-08-20T19:59:09.011Z,6.47
2022-08-20T20:02:00.506Z,6.82
2022-08-20T20:04:55.625Z,6.82
2022-08-20T20:07:46.156Z,5.72
2022-08-20T20:10:33.683Z,6.45
2022-08-20T20:13:21.409Z,6.32
2022-08-20T20:16:07.601Z,5.95
2022-08-20T20:19:15.651Z,5.57
2022-08-20T20:22:18.385Z,5.90
2022-08-20T20:25:19.891Z,5.03
2022-08-20T20:28:11.835Z,4.40
2022-08-20T20:31:12.139Z,5.68
2022-08-20T20:34:04.355Z,5.38
2022-08-20T20:39:42.194Z,5.50
2022-08-20T20:42:29.447Z,6.25
2022-08-20T20:45:18.538Z,5.50
2022-08-20T20:48:24.727Z,6.00
2022-08-20T20:51:33.515Z,5.75
2022-08-20T20:54:26.124Z,5.25
2022-08-20T20:57:15.155Z,7.53
2022-08-20T21:00:01.343Z,7.03
2022-08-20T21:02:47.631Z,5.55
2022-08-20T21:05:33.474Z,6.40
2022-08-20T21:08:19.636Z,4.53
2022-08-20T21:11:08.017Z,4.85
2022-08-20T21:13:54.144Z,5.45
2022-08-20T21:16:40.433Z,5.38
2022-08-20T21:19:26.917Z,4.55
2022-08-20T21:22:13.090Z,4.35
2022-08-20T21:24:58.861Z,5.13
2022-08-20T21:27:46.301Z,4.88
2022-08-20T21:30:35.243Z,5.35
2022-08-20T21:33:21.238Z,4.05
2022-08-20T21:36:07.491Z,4.97
2022-08-20T21:38:53.800Z,5.32
2022-08-20T21:41:42.630Z,5.28
2022-08-20T21:44:29.718Z,5.78
2022-08-20T21:47:16.082Z,5.75
2022-08-20T21:50:02.243Z,5.93
2022-08-20T21:52:59.332Z,5.70
2022-08-20T21:56:04.518Z,5.63
2022-08-20T21:58:50.824Z,5.10
2022-08-20T22:01:40.864Z,5.35
2022-08-20T22:04:27.174Z,6.10
2022-08-20T22:07:13.228Z,5.68
2022-08-20T22:09:59.237Z,6.40
2022-08-20T22:12:45.490Z,5.88
2022-08-20T22:15:32.070Z,5.63
2022-08-20T22:18:18.359Z,5.28
2022-08-20T22:21:06.394Z,6.22
2022-08-20T22:23:53.055Z,6.72
2022-08-20T22:26:40.816Z,6.82
2022-08-20T22:29:27.048Z,7.20
2022-08-20T22:32:14.010Z,5.90
2022-08-20T22:35:00.156Z,6.00
2022-08-20T22:37:47.238Z,6.57
2022-08-20T22:40:33.738Z,6.63
2022-08-20T22:43:20.581Z,6.45
2022-08-20T22:46:07.556Z,5.40
2022-08-20T22:48:53.662Z,5.63
2022-08-20T22:51:41.090Z,5.63
2022-08-20T22:54:30.142Z,4.50
2022-08-20T22:57:20.387Z,5.00
2022-08-20T23:00:11.504Z,4.40
2022-08-20T23:02:58.761Z,4.30
2022-08-20T23:05:45.070Z,4.45
2022-08-20T23:08:31.393Z,4.78
2022-08-20T23:11:17.617Z,6.05
2022-08-20T23:14:03.738Z,5.05
2022-08-20T23:16:56.735Z,5.03
2022-08-20T23:19:44.248Z,5.07
2022-08-20T23:22:30.791Z,4.90
2022-08-20T23:25:19.507Z,4.50
2022-08-20T23:28:09.965Z,4.60
2022-08-20T23:31:03.901Z,4.15
2022-08-20T23:33:49.982Z,4.32
2022-08-20T23:36:40.987Z,4.20
2022-08-20T23:39:27.237Z,4.70
2022-08-20T23:42:32.243Z,4.50
2022-08-20T23:45:20.444Z,4.95
2022-08-20T23:48:06.715Z,4.18
2022-08-20T23:50:52.532Z,4.85
2022-08-20T23:53:38.900Z,4.03
2022-08-20T23:56:24.584Z,4.78
2022-08-20T23:59:10.711Z,5.15
